sensor_id;sensor_type;location;lat;lon;timestamp;P1;durP1;ratioP1;P2;durP2;ratioP2
12784;SDS011;6456;42.680;23.260;2023-07-20T00:00:07;6.55;;;2.67;;
12784;SDS011;6456;42.680;23.260;2023-07-20T00:02:38;5.32;;;2.60;;
12784;SDS011;6456;42.680;23.260;2023-07-20T00:05:05;7.78;;;2.70;;
12784;SDS011;6456;42.680;23.260;2023-07-20T00:07:35;6.10;;;3.03;;
12784;SDS011;6456;42.680;23.260;2023-07-20T00:10:11;8.02;;;2.60;;
12784;SDS011;6456;42.680;23.260;2023-07-20T00:12:40;4.25;;;2.60;;
12784;SDS011;6456;42.680;23.260;2023-07-20T00:15:12;7.78;;;2.90;;
12784;SDS011;6456;42.680;23.260;2023-07-20T00:17:39;5.25;;;2.55;;
12784;SDS011;6456;42.680;23.260;2023-07-20T00:20:07;5.82;;;2.75;;
12784;SDS011;6456;42.680;23.260;2023-07-20T00:22:35;4.45;;;2.60;;
12784;SDS011;6456;42.680;23.260;2023-07-20T00:25:02;6.57;;;2.72;;
12784;SDS011;6456;42.680;23.260;2023-07-20T00:27:31;6.80;;;3.03;;
12784;SDS011;6456;42.680;23.260;2023-07-20T00:30:00;6.28;;;2.85;;
12784;SDS011;6456;42.680;23.260;2023-07-20T00:32:29;8.55;;;3.13;;
12784;SDS011;6456;42.680;23.260;2023-07-20T00:34:59;6.53;;;2.70;;
12784;SDS011;6456;42.680;23.260;2023-07-20T00:37:28;9.85;;;2.97;;
12784;SDS011;6456;42.680;23.260;2023-07-20T00:39:58;6.63;;;2.55;;
12784;SDS011;6456;42.680;23.260;2023-07-20T00:42:33;6.85;;;2.55;;
12784;SDS011;6456;42.680;23.260;2023-07-20T00:45:09;6.22;;;2.78;;
12784;SDS011;6456;42.680;23.260;2023-07-20T00:47:36;6.28;;;2.65;;
12784;SDS011;6456;42.680;23.260;2023-07-20T00:50:06;6.15;;;2.60;;
12784;SDS011;6456;42.680;23.260;2023-07-20T00:52:45;5.45;;;2.45;;
12784;SDS011;6456;42.680;23.260;2023-07-20T00:55:15;5.47;;;2.90;;
12784;SDS011;6456;42.680;23.260;2023-07-20T00:57:42;5.35;;;2.70;;
12784;SDS011;6456;42.680;23.260;2023-07-20T01:00:11;7.13;;;3.15;;
12784;SDS011;6456;42.680;23.260;2023-07-20T01:02:39;6.30;;;2.65;;
12784;SDS011;6456;42.680;23.260;2023-07-20T01:05:09;6.18;;;2.60;;
12784;SDS011;6456;42.680;23.260;2023-07-20T01:07:38;4.60;;;2.47;;
12784;SDS011;6456;42.680;23.260;2023-07-20T01:10:17;5.20;;;2.50;;
12784;SDS011;6456;42.680;23.260;2023-07-20T01:12:52;8.68;;;3.13;;
12784;SDS011;6456;42.680;23.260;2023-07-20T01:15:23;3.75;;;2.70;;
12784;SDS011;6456;42.680;23.260;2023-07-20T01:17:50;5.28;;;2.70;;
12784;SDS011;6456;42.680;23.260;2023-07-20T01:20:18;9.02;;;2.90;;
12784;SDS011;6456;42.680;23.260;2023-07-20T01:22:55;6.93;;;3.08;;
12784;SDS011;6456;42.680;23.260;2023-07-20T01:25:48;5.50;;;2.47;;
12784;SDS011;6456;42.680;23.260;2023-07-20T01:28:37;6.75;;;2.55;;
12784;SDS011;6456;42.680;23.260;2023-07-20T01:31:21;5.90;;;3.08;;
12784;SDS011;6456;42.680;23.260;2023-07-20T01:33:52;4.25;;;2.85;;
12784;SDS011;6456;42.680;23.260;2023-07-20T01:36:21;9.30;;;3.20;;
12784;SDS011;6456;42.680;23.260;2023-07-20T01:38:51;4.85;;;3.05;;
12784;SDS011;6456;42.680;23.260;2023-07-20T01:41:19;7.22;;;2.97;;
12784;SDS011;6456;42.680;23.260;2023-07-20T01:43:47;6.85;;;2.80;;
12784;SDS011;6456;42.680;23.260;2023-07-20T01:46:15;5.45;;;2.40;;
12784;SDS011;6456;42.680;23.260;2023-07-20T01:48:43;3.85;;;2.67;;
12784;SDS011;6456;42.680;23.260;2023-07-20T01:51:10;5.80;;;2.88;;
12784;SDS011;6456;42.680;23.260;2023-07-20T01:53:40;8.20;;;3.08;;
12784;SDS011;6456;42.680;23.260;2023-07-20T01:56:10;5.43;;;2.30;;
12784;SDS011;6456;42.680;23.260;2023-07-20T01:58:37;3.75;;;2.20;;
12784;SDS011;6456;42.680;23.260;2023-07-20T02:01:05;4.45;;;2.60;;
12784;SDS011;6456;42.680;23.260;2023-07-20T02:03:32;4.97;;;2.50;;
12784;SDS011;6456;42.680;23.260;2023-07-20T02:06:00;7.00;;;2.60;;
12784;SDS011;6456;42.680;23.260;2023-07-20T02:08:27;6.63;;;2.50;;
12784;SDS011;6456;42.680;23.260;2023-07-20T02:10:55;4.97;;;2.63;;
12784;SDS011;6456;42.680;23.260;2023-07-20T02:13:22;5.70;;;3.03;;
12784;SDS011;6456;42.680;23.260;2023-07-20T02:15:49;6.70;;;2.83;;
12784;SDS011;6456;42.680;23.260;2023-07-20T02:18:16;5.40;;;2.78;;
12784;SDS011;6456;42.680;23.260;2023-07-20T02:20:46;7.30;;;2.83;;
12784;SDS011;6456;42.680;23.260;2023-07-20T02:23:15;8.63;;;2.90;;
12784;SDS011;6456;42.680;23.260;2023-07-20T02:25:42;3.85;;;2.63;;
12784;SDS011;6456;42.680;23.260;2023-07-20T02:28:11;5.80;;;2.80;;
12784;SDS011;6456;42.680;23.260;2023-07-20T02:30:42;6.37;;;3.57;;
12784;SDS011;6456;42.680;23.260;2023-07-20T02:33:09;4.13;;;2.50;;
12784;SDS011;6456;42.680;23.260;2023-07-20T02:35:37;6.87;;;3.30;;
12784;SDS011;6456;42.680;23.260;2023-07-20T02:38:04;4.53;;;2.50;;
12784;SDS011;6456;42.680;23.260;2023-07-20T02:40:33;6.53;;;3.30;;
12784;SDS011;6456;42.680;23.260;2023-07-20T02:43:03;7.10;;;3.50;;
12784;SDS011;6456;42.680;23.260;2023-07-20T02:45:30;4.17;;;3.10;;
12784;SDS011;6456;42.680;23.260;2023-07-20T02:47:58;7.13;;;3.60;;
12784;SDS011;6456;42.680;23.260;2023-07-20T02:50:26;4.80;;;3.22;;
12784;SDS011;6456;42.680;23.260;2023-07-20T02:52:53;5.97;;;3.40;;
12784;SDS011;6456;42.680;23.260;2023-07-20T02:55:20;5.63;;;3.20;;
12784;SDS011;6456;42.680;23.260;2023-07-20T02:57:49;5.43;;;3.50;;
12784;SDS011;6456;42.680;23.260;2023-07-20T03:00:16;5.67;;;3.40;;
12784;SDS011;6456;42.680;23.260;2023-07-20T03:02:44;5.37;;;3.30;;
12784;SDS011;6456;42.680;23.260;2023-07-20T03:05:12;7.27;;;3.50;;
12784;SDS011;6456;42.680;23.260;2023-07-20T03:07:39;5.50;;;3.00;;
12784;SDS011;6456;42.680;23.260;2023-07-20T03:10:08;8.03;;;3.47;;
12784;SDS011;6456;42.680;23.260;2023-07-20T03:12:36;6.40;;;3.27;;
12784;SDS011;6456;42.680;23.260;2023-07-20T03:15:10;5.40;;;3.10;;
12784;SDS011;6456;42.680;23.260;2023-07-20T03:17:54;7.40;;;3.00;;
12784;SDS011;6456;42.680;23.260;2023-07-20T03:20:21;8.77;;;3.17;;
12784;SDS011;6456;42.680;23.260;2023-07-20T03:22:48;6.47;;;3.10;;
12784;SDS011;6456;42.680;23.260;2023-07-20T03:25:15;11.20;;;4.05;;
12784;SDS011;6456;42.680;23.260;2023-07-20T03:27:42;7.55;;;3.50;;
12784;SDS011;6456;42.680;23.260;2023-07-20T03:30:11;7.88;;;3.83;;
12784;SDS011;6456;42.680;23.260;2023-07-20T03:32:39;5.38;;;3.45;;
12784;SDS011;6456;42.680;23.260;2023-07-20T03:35:06;5.38;;;3.83;;
12784;SDS011;6456;42.680;23.260;2023-07-20T03:37:33;10.05;;;3.72;;
12784;SDS011;6456;42.680;23.260;2023-07-20T03:40:02;7.30;;;4.68;;
12784;SDS011;6456;42.680;23.260;2023-07-20T03:42:29;9.27;;;4.82;;
12784;SDS011;6456;42.680;23.260;2023-07-20T03:44:56;9.77;;;4.68;;
12784;SDS011;6456;42.680;23.260;2023-07-20T03:47:25;10.73;;;4.07;;
12784;SDS011;6456;42.680;23.260;2023-07-20T03:49:51;10.02;;;4.50;;
12784;SDS011;6456;42.680;23.260;2023-07-20T03:52:18;7.47;;;4.00;;
12784;SDS011;6456;42.680;23.260;2023-07-20T03:54:45;9.60;;;4.80;;
12784;SDS011;6456;42.680;23.260;2023-07-20T03:57:12;10.48;;;4.47;;
12784;SDS011;6456;42.680;23.260;2023-07-20T03:59:39;11.10;;;5.15;;
12784;SDS011;6456;42.680;23.260;2023-07-20T04:02:06;24.08;;;5.85;;
12784;SDS011;6456;42.680;23.260;2023-07-20T04:04:34;11.85;;;4.45;;
12784;SDS011;6456;42.680;23.260;2023-07-20T04:07:01;9.50;;;4.13;;
12784;SDS011;6456;42.680;23.260;2023-07-20T04:09:29;9.27;;;4.35;;
12784;SDS011;6456;42.680;23.260;2023-07-20T04:11:57;9.15;;;3.92;;
12784;SDS011;6456;42.680;23.260;2023-07-20T04:14:25;8.98;;;3.78;;
12784;SDS011;6456;42.680;23.260;2023-07-20T04:16:52;9.55;;;3.95;;
12784;SDS011;6456;42.680;23.260;2023-07-20T04:19:18;13.15;;;5.10;;
12784;SDS011;6456;42.680;23.260;2023-07-20T04:21:47;11.57;;;4.30;;
12784;SDS011;6456;42.680;23.260;2023-07-20T04:24:13;8.25;;;4.28;;
12784;SDS011;6456;42.680;23.260;2023-07-20T04:26:40;11.35;;;3.72;;
12784;SDS011;6456;42.680;23.260;2023-07-20T04:29:07;12.27;;;4.50;;
12784;SDS011;6456;42.680;23.260;2023-07-20T04:31:34;10.73;;;4.13;;
12784;SDS011;6456;42.680;23.260;2023-07-20T04:34:01;10.98;;;4.38;;
12784;SDS011;6456;42.680;23.260;2023-07-20T04:36:28;7.25;;;3.90;;
12784;SDS011;6456;42.680;23.260;2023-07-20T04:38:56;7.45;;;4.47;;
12784;SDS011;6456;42.680;23.260;2023-07-20T04:41:23;7.68;;;3.83;;
12784;SDS011;6456;42.680;23.260;2023-07-20T04:43:50;9.57;;;4.18;;
12784;SDS011;6456;42.680;23.260;2023-07-20T04:46:17;17.90;;;4.60;;
12784;SDS011;6456;42.680;23.260;2023-07-20T04:48:44;9.98;;;4.22;;
12784;SDS011;6456;42.680;23.260;2023-07-20T04:51:11;8.95;;;4.20;;
12784;SDS011;6456;42.680;23.260;2023-07-20T04:53:38;8.43;;;4.97;;
12784;SDS011;6456;42.680;23.260;2023-07-20T04:56:06;14.00;;;5.15;;
12784;SDS011;6456;42.680;23.260;2023-07-20T04:58:33;10.25;;;4.88;;
12784;SDS011;6456;42.680;23.260;2023-07-20T05:01:00;11.50;;;5.18;;
12784;SDS011;6456;42.680;23.260;2023-07-20T05:03:26;11.13;;;4.60;;
12784;SDS011;6456;42.680;23.260;2023-07-20T05:05:53;14.05;;;5.03;;
12784;SDS011;6456;42.680;23.260;2023-07-20T05:08:20;10.68;;;4.03;;
12784;SDS011;6456;42.680;23.260;2023-07-20T05:10:48;9.93;;;4.20;;
12784;SDS011;6456;42.680;23.260;2023-07-20T05:13:17;6.57;;;3.75;;
12784;SDS011;6456;42.680;23.260;2023-07-20T05:15:44;6.32;;;3.58;;
12784;SDS011;6456;42.680;23.260;2023-07-20T05:18:11;8.65;;;3.90;;
12784;SDS011;6456;42.680;23.260;2023-07-20T05:20:38;9.45;;;4.13;;
12784;SDS011;6456;42.680;23.260;2023-07-20T05:23:04;6.85;;;3.20;;
12784;SDS011;6456;42.680;23.260;2023-07-20T05:25:31;8.27;;;3.83;;
12784;SDS011;6456;42.680;23.260;2023-07-20T05:27:59;8.05;;;3.22;;
12784;SDS011;6456;42.680;23.260;2023-07-20T05:30:27;9.73;;;3.45;;
12784;SDS011;6456;42.680;23.260;2023-07-20T05:32:54;10.50;;;3.70;;
12784;SDS011;6456;42.680;23.260;2023-07-20T05:35:21;5.20;;;3.08;;
12784;SDS011;6456;42.680;23.260;2023-07-20T05:37:48;7.03;;;3.78;;
12784;SDS011;6456;42.680;23.260;2023-07-20T05:40:15;17.13;;;3.97;;
12784;SDS011;6456;42.680;23.260;2023-07-20T05:42:44;6.88;;;3.25;;
12784;SDS011;6456;42.680;23.260;2023-07-20T05:45:12;10.25;;;3.20;;
12784;SDS011;6456;42.680;23.260;2023-07-20T05:47:41;6.60;;;3.17;;
12784;SDS011;6456;42.680;23.260;2023-07-20T05:50:08;4.03;;;3.13;;
12784;SDS011;6456;42.680;23.260;2023-07-20T05:52:36;11.35;;;3.25;;
12784;SDS011;6456;42.680;23.260;2023-07-20T05:55:04;8.55;;;4.00;;
12784;SDS011;6456;42.680;23.260;2023-07-20T05:57:32;6.38;;;3.65;;
12784;SDS011;6456;42.680;23.260;2023-07-20T06:00:00;8.13;;;3.47;;
12784;SDS011;6456;42.680;23.260;2023-07-20T06:02:28;5.53;;;3.70;;
12784;SDS011;6456;42.680;23.260;2023-07-20T06:04:56;7.30;;;3.97;;
12784;SDS011;6456;42.680;23.260;2023-07-20T06:07:23;8.93;;;3.28;;
12784;SDS011;6456;42.680;23.260;2023-07-20T06:09:50;5.70;;;3.30;;
12784;SDS011;6456;42.680;23.260;2023-07-20T06:12:17;9.35;;;4.60;;
12784;SDS011;6456;42.680;23.260;2023-07-20T06:14:44;7.07;;;3.60;;
12784;SDS011;6456;42.680;23.260;2023-07-20T06:17:11;7.93;;;3.75;;
12784;SDS011;6456;42.680;23.260;2023-07-20T06:19:38;7.00;;;4.15;;
12784;SDS011;6456;42.680;23.260;2023-07-20T06:22:06;7.13;;;4.18;;
12784;SDS011;6456;42.680;23.260;2023-07-20T06:24:33;6.10;;;3.47;;
12784;SDS011;6456;42.680;23.260;2023-07-20T06:27:00;9.32;;;4.03;;
12784;SDS011;6456;42.680;23.260;2023-07-20T06:29:27;8.32;;;4.30;;
12784;SDS011;6456;42.680;23.260;2023-07-20T06:31:54;5.60;;;3.33;;
12784;SDS011;6456;42.680;23.260;2023-07-20T06:34:21;8.23;;;3.70;;
12784;SDS011;6456;42.680;23.260;2023-07-20T06:36:48;8.73;;;4.18;;
12784;SDS011;6456;42.680;23.260;2023-07-20T06:39:16;9.48;;;3.88;;
12784;SDS011;6456;42.680;23.260;2023-07-20T06:41:43;9.88;;;3.40;;
12784;SDS011;6456;42.680;23.260;2023-07-20T06:44:10;5.90;;;3.65;;
12784;SDS011;6456;42.680;23.260;2023-07-20T06:46:37;6.18;;;3.80;;
12784;SDS011;6456;42.680;23.260;2023-07-20T06:49:05;7.97;;;3.63;;
12784;SDS011;6456;42.680;23.260;2023-07-20T06:51:32;8.48;;;3.60;;
12784;SDS011;6456;42.680;23.260;2023-07-20T06:54:00;9.52;;;4.55;;
12784;SDS011;6456;42.680;23.260;2023-07-20T06:56:31;11.50;;;6.07;;
12784;SDS011;6456;42.680;23.260;2023-07-20T06:58:57;6.20;;;3.58;;
12784;SDS011;6456;42.680;23.260;2023-07-20T07:01:24;9.73;;;3.88;;
12784;SDS011;6456;42.680;23.260;2023-07-20T07:03:51;9.30;;;3.83;;
12784;SDS011;6456;42.680;23.260;2023-07-20T07:06:18;8.05;;;3.95;;
12784;SDS011;6456;42.680;23.260;2023-07-20T07:08:47;8.18;;;3.97;;
12784;SDS011;6456;42.680;23.260;2023-07-20T07:11:17;8.02;;;3.83;;
12784;SDS011;6456;42.680;23.260;2023-07-20T07:13:45;8.32;;;4.07;;
12784;SDS011;6456;42.680;23.260;2023-07-20T07:16:14;8.25;;;3.75;;
12784;SDS011;6456;42.680;23.260;2023-07-20T07:18:43;9.35;;;3.97;;
12784;SDS011;6456;42.680;23.260;2023-07-20T07:21:10;9.15;;;3.60;;
12784;SDS011;6456;42.680;23.260;2023-07-20T07:23:37;6.90;;;3.78;;
12784;SDS011;6456;42.680;23.260;2023-07-20T07:26:04;6.65;;;3.97;;
12784;SDS011;6456;42.680;23.260;2023-07-20T07:28:32;5.13;;;4.15;;
12784;SDS011;6456;42.680;23.260;2023-07-20T07:31:00;10.18;;;4.88;;
12784;SDS011;6456;42.680;23.260;2023-07-20T07:33:27;6.75;;;4.07;;
12784;SDS011;6456;42.680;23.260;2023-07-20T07:35:54;8.23;;;4.47;;
12784;SDS011;6456;42.680;23.260;2023-07-20T07:38:20;12.18;;;4.80;;
12784;SDS011;6456;42.680;23.260;2023-07-20T07:40:47;7.30;;;3.90;;
12784;SDS011;6456;42.680;23.260;2023-07-20T07:43:14;8.73;;;4.10;;
12784;SDS011;6456;42.680;23.260;2023-07-20T07:45:41;8.63;;;4.38;;
12784;SDS011;6456;42.680;23.260;2023-07-20T07:48:09;11.18;;;4.32;;
12784;SDS011;6456;42.680;23.260;2023-07-20T07:50:39;6.40;;;4.32;;
12784;SDS011;6456;42.680;23.260;2023-07-20T07:53:07;15.18;;;5.05;;
12784;SDS011;6456;42.680;23.260;2023-07-20T07:55:35;7.50;;;4.22;;
12784;SDS011;6456;42.680;23.260;2023-07-20T07:58:02;8.07;;;4.18;;
12784;SDS011;6456;42.680;23.260;2023-07-20T08:00:29;6.93;;;4.13;;
12784;SDS011;6456;42.680;23.260;2023-07-20T08:02:56;10.07;;;4.20;;
12784;SDS011;6456;42.680;23.260;2023-07-20T08:05:24;9.25;;;4.00;;
12784;SDS011;6456;42.680;23.260;2023-07-20T08:07:51;9.18;;;3.80;;
12784;SDS011;6456;42.680;23.260;2023-07-20T08:10:18;5.97;;;3.80;;
12784;SDS011;6456;42.680;23.260;2023-07-20T08:12:45;7.45;;;3.75;;
12784;SDS011;6456;42.680;23.260;2023-07-20T08:15:12;7.55;;;3.30;;
12784;SDS011;6456;42.680;23.260;2023-07-20T08:17:40;6.10;;;2.67;;
12784;SDS011;6456;42.680;23.260;2023-07-20T08:20:09;6.30;;;2.63;;
12784;SDS011;6456;42.680;23.260;2023-07-20T08:22:40;6.88;;;2.72;;
12784;SDS011;6456;42.680;23.260;2023-07-20T08:25:07;6.20;;;2.67;;
12784;SDS011;6456;42.680;23.260;2023-07-20T08:27:34;6.07;;;2.78;;
12784;SDS011;6456;42.680;23.260;2023-07-20T08:30:03;7.93;;;2.90;;
12784;SDS011;6456;42.680;23.260;2023-07-20T08:32:32;7.97;;;2.55;;
12784;SDS011;6456;42.680;23.260;2023-07-20T08:34:59;5.45;;;3.05;;
12784;SDS011;6456;42.680;23.260;2023-07-20T08:37:26;6.15;;;2.90;;
12784;SDS011;6456;42.680;23.260;2023-07-20T08:39:54;5.32;;;2.45;;
12784;SDS011;6456;42.680;23.260;2023-07-20T08:42:21;6.80;;;2.70;;
12784;SDS011;6456;42.680;23.260;2023-07-20T08:44:49;6.70;;;2.70;;
12784;SDS011;6456;42.680;23.260;2023-07-20T08:47:19;7.38;;;2.88;;
12784;SDS011;6456;42.680;23.260;2023-07-20T08:49:47;7.40;;;2.88;;
12784;SDS011;6456;42.680;23.260;2023-07-20T08:52:15;5.38;;;2.53;;
12784;SDS011;6456;42.680;23.260;2023-07-20T08:54:42;4.65;;;2.33;;
12784;SDS011;6456;42.680;23.260;2023-07-20T08:57:10;6.32;;;3.22;;
12784;SDS011;6456;42.680;23.260;2023-07-20T08:59:41;4.00;;;2.33;;
12784;SDS011;6456;42.680;23.260;2023-07-20T09:02:08;7.00;;;2.53;;
12784;SDS011;6456;42.680;23.260;2023-07-20T09:04:42;4.43;;;2.20;;
12784;SDS011;6456;42.680;23.260;2023-07-20T09:07:10;4.88;;;2.90;;
12784;SDS011;6456;42.680;23.260;2023-07-20T09:09:40;4.55;;;2.45;;
12784;SDS011;6456;42.680;23.260;2023-07-20T09:12:13;6.53;;;2.92;;
12784;SDS011;6456;42.680;23.260;2023-07-20T09:14:42;8.00;;;2.47;;
12784;SDS011;6456;42.680;23.260;2023-07-20T09:17:12;5.43;;;2.47;;
12784;SDS011;6456;42.680;23.260;2023-07-20T09:19:45;8.52;;;2.60;;
12784;SDS011;6456;42.680;23.260;2023-07-20T09:22:12;6.05;;;2.83;;
12784;SDS011;6456;42.680;23.260;2023-07-20T09:24:39;3.17;;;2.08;;
12784;SDS011;6456;42.680;23.260;2023-07-20T09:27:06;6.38;;;2.50;;
12784;SDS011;6456;42.680;23.260;2023-07-20T09:29:36;5.38;;;2.50;;
12784;SDS011;6456;42.680;23.260;2023-07-20T09:32:17;5.75;;;2.58;;
12784;SDS011;6456;42.680;23.260;2023-07-20T09:34:45;9.05;;;2.95;;
12784;SDS011;6456;42.680;23.260;2023-07-20T09:37:13;6.82;;;2.50;;
12784;SDS011;6456;42.680;23.260;2023-07-20T09:39:42;7.22;;;2.60;;
12784;SDS011;6456;42.680;23.260;2023-07-20T09:42:10;4.45;;;2.10;;
12784;SDS011;6456;42.680;23.260;2023-07-20T09:44:39;5.63;;;2.33;;
12784;SDS011;6456;42.680;23.260;2023-07-20T09:47:07;7.85;;;2.40;;
12784;SDS011;6456;42.680;23.260;2023-07-20T09:49:37;6.30;;;2.50;;
12784;SDS011;6456;42.680;23.260;2023-07-20T09:52:05;5.70;;;2.03;;
12784;SDS011;6456;42.680;23.260;2023-07-20T09:54:33;6.32;;;2.25;;
12784;SDS011;6456;42.680;23.260;2023-07-20T09:57:00;7.13;;;2.35;;
12784;SDS011;6456;42.680;23.260;2023-07-20T09:59:28;6.03;;;2.35;;
12784;SDS011;6456;42.680;23.260;2023-07-20T10:01:57;5.20;;;2.30;;
12784;SDS011;6456;42.680;23.260;2023-07-20T10:04:25;4.85;;;2.30;;
12784;SDS011;6456;42.680;23.260;2023-07-20T10:06:54;5.30;;;2.15;;
12784;SDS011;6456;42.680;23.260;2023-07-20T10:09:23;7.75;;;2.15;;
12784;SDS011;6456;42.680;23.260;2023-07-20T10:11:52;5.78;;;2.50;;
12784;SDS011;6456;42.680;23.260;2023-07-20T10:14:20;5.25;;;2.10;;
12784;SDS011;6456;42.680;23.260;2023-07-20T10:16:50;4.55;;;2.28;;
12784;SDS011;6456;42.680;23.260;2023-07-20T10:19:21;7.78;;;2.20;;
12784;SDS011;6456;42.680;23.260;2023-07-20T10:21:51;5.55;;;2.15;;
12784;SDS011;6456;42.680;23.260;2023-07-20T10:24:24;6.28;;;2.55;;
12784;SDS011;6456;42.680;23.260;2023-07-20T10:26:51;4.22;;;2.20;;
12784;SDS011;6456;42.680;23.260;2023-07-20T10:29:18;4.05;;;2.10;;
12784;SDS011;6456;42.680;23.260;2023-07-20T10:31:46;5.32;;;2.60;;
12784;SDS011;6456;42.680;23.260;2023-07-20T10:34:13;6.70;;;2.65;;
12784;SDS011;6456;42.680;23.260;2023-07-20T10:36:44;3.95;;;2.03;;
12784;SDS011;6456;42.680;23.260;2023-07-20T10:39:23;4.47;;;2.65;;
12784;SDS011;6456;42.680;23.260;2023-07-20T10:41:59;4.90;;;2.30;;
12784;SDS011;6456;42.680;23.260;2023-07-20T10:44:27;6.60;;;2.42;;
12784;SDS011;6456;42.680;23.260;2023-07-20T10:46:58;4.50;;;2.00;;
12784;SDS011;6456;42.680;23.260;2023-07-20T10:49:26;5.70;;;2.42;;
12784;SDS011;6456;42.680;23.260;2023-07-20T10:51:58;6.65;;;2.38;;
12784;SDS011;6456;42.680;23.260;2023-07-20T10:57:21;3.70;;;2.25;;
12784;SDS011;6456;42.680;23.260;2023-07-20T10:59:50;5.35;;;2.30;;
12784;SDS011;6456;42.680;23.260;2023-07-20T11:02:17;5.30;;;2.35;;
12784;SDS011;6456;42.680;23.260;2023-07-20T11:04:45;4.80;;;2.78;;
12784;SDS011;6456;42.680;23.260;2023-07-20T11:07:16;6.20;;;2.10;;
12784;SDS011;6456;42.680;23.260;2023-07-20T11:10:12;4.50;;;2.88;;
12784;SDS011;6456;42.680;23.260;2023-07-20T11:12:40;7.88;;;2.95;;
12784;SDS011;6456;42.680;23.260;2023-07-20T11:15:07;6.47;;;2.63;;
12784;SDS011;6456;42.680;23.260;2023-07-20T11:17:34;5.97;;;2.70;;
12784;SDS011;6456;42.680;23.260;2023-07-20T11:20:03;5.90;;;3.00;;
12784;SDS011;6456;42.680;23.260;2023-07-20T11:22:32;7.10;;;2.92;;
12784;SDS011;6456;42.680;23.260;2023-07-20T11:25:00;5.50;;;2.70;;
12784;SDS011;6456;42.680;23.260;2023-07-20T11:27:26;10.18;;;3.35;;
12784;SDS011;6456;42.680;23.260;2023-07-20T11:29:53;8.68;;;2.85;;
12784;SDS011;6456;42.680;23.260;2023-07-20T11:32:20;6.70;;;2.70;;
12784;SDS011;6456;42.680;23.260;2023-07-20T11:34:48;8.05;;;3.35;;
12784;SDS011;6456;42.680;23.260;2023-07-20T11:37:15;5.43;;;2.78;;
12784;SDS011;6456;42.680;23.260;2023-07-20T11:39:44;8.68;;;3.55;;
12784;SDS011;6456;42.680;23.260;2023-07-20T11:42:11;4.85;;;3.47;;
12784;SDS011;6456;42.680;23.260;2023-07-20T11:44:39;4.88;;;3.17;;
12784;SDS011;6456;42.680;23.260;2023-07-20T11:47:07;4.95;;;3.42;;
12784;SDS011;6456;42.680;23.260;2023-07-20T11:49:35;4.38;;;3.08;;
12784;SDS011;6456;42.680;23.260;2023-07-20T11:52:03;4.78;;;3.15;;
12784;SDS011;6456;42.680;23.260;2023-07-20T11:54:31;5.72;;;3.58;;
12784;SDS011;6456;42.680;23.260;2023-07-20T11:57:01;5.13;;;3.75;;
12784;SDS011;6456;42.680;23.260;2023-07-20T11:59:30;5.88;;;3.70;;
12784;SDS011;6456;42.680;23.260;2023-07-20T12:01:57;7.57;;;3.35;;
12784;SDS011;6456;42.680;23.260;2023-07-20T12:04:25;5.28;;;3.15;;
12784;SDS011;6456;42.680;23.260;2023-07-20T12:06:53;6.53;;;3.30;;
12784;SDS011;6456;42.680;23.260;2023-07-20T12:09:20;6.68;;;3.28;;
12784;SDS011;6456;42.680;23.260;2023-07-20T12:11:48;4.63;;;3.17;;
12784;SDS011;6456;42.680;23.260;2023-07-20T12:14:17;8.95;;;3.38;;
12784;SDS011;6456;42.680;23.260;2023-07-20T12:16:44;4.82;;;2.97;;
12784;SDS011;6456;42.680;23.260;2023-07-20T12:19:19;7.80;;;3.28;;
12784;SDS011;6456;42.680;23.260;2023-07-20T12:21:46;5.85;;;3.40;;
12784;SDS011;6456;42.680;23.260;2023-07-20T12:24:13;6.03;;;3.42;;
12784;SDS011;6456;42.680;23.260;2023-07-20T12:26:40;3.58;;;2.70;;
12784;SDS011;6456;42.680;23.260;2023-07-20T12:29:07;4.55;;;2.88;;
12784;SDS011;6456;42.680;23.260;2023-07-20T12:31:36;3.83;;;2.45;;
12784;SDS011;6456;42.680;23.260;2023-07-20T12:34:03;6.47;;;2.83;;
12784;SDS011;6456;42.680;23.260;2023-07-20T12:36:30;6.50;;;2.90;;
12784;SDS011;6456;42.680;23.260;2023-07-20T12:38:57;4.47;;;2.80;;
12784;SDS011;6456;42.680;23.260;2023-07-20T12:41:26;4.45;;;2.78;;
12784;SDS011;6456;42.680;23.260;2023-07-20T12:43:53;7.75;;;2.85;;
12784;SDS011;6456;42.680;23.260;2023-07-20T12:46:23;6.72;;;2.60;;
12784;SDS011;6456;42.680;23.260;2023-07-20T12:48:51;8.18;;;3.15;;
12784;SDS011;6456;42.680;23.260;2023-07-20T12:51:18;7.45;;;2.67;;
12784;SDS011;6456;42.680;23.260;2023-07-20T12:53:45;6.38;;;3.35;;
12784;SDS011;6456;42.680;23.260;2023-07-20T12:56:12;4.55;;;2.55;;
12784;SDS011;6456;42.680;23.260;2023-07-20T12:58:39;5.28;;;2.72;;
12784;SDS011;6456;42.680;23.260;2023-07-20T13:01:05;8.35;;;3.28;;
12784;SDS011;6456;42.680;23.260;2023-07-20T13:03:32;4.40;;;2.95;;
12784;SDS011;6456;42.680;23.260;2023-07-20T13:06:01;5.45;;;2.67;;
12784;SDS011;6456;42.680;23.260;2023-07-20T13:08:27;5.35;;;3.03;;
12784;SDS011;6456;42.680;23.260;2023-07-20T13:10:54;4.57;;;2.60;;
12784;SDS011;6456;42.680;23.260;2023-07-20T13:13:21;7.18;;;3.08;;
12784;SDS011;6456;42.680;23.260;2023-07-20T13:15:48;6.93;;;2.92;;
12784;SDS011;6456;42.680;23.260;2023-07-20T13:18:15;7.07;;;2.88;;
12784;SDS011;6456;42.680;23.260;2023-07-20T13:20:42;4.70;;;2.40;;
12784;SDS011;6456;42.680;23.260;2023-07-20T13:23:10;7.38;;;2.80;;
12784;SDS011;6456;42.680;23.260;2023-07-20T13:25:37;6.07;;;2.80;;
12784;SDS011;6456;42.680;23.260;2023-07-20T13:28:04;5.57;;;2.60;;
12784;SDS011;6456;42.680;23.260;2023-07-20T13:30:34;6.43;;;2.97;;
12784;SDS011;6456;42.680;23.260;2023-07-20T13:33:01;5.30;;;2.50;;
12784;SDS011;6456;42.680;23.260;2023-07-20T13:35:28;5.20;;;2.45;;
12784;SDS011;6456;42.680;23.260;2023-07-20T13:37:54;4.97;;;2.85;;
12784;SDS011;6456;42.680;23.260;2023-07-20T13:40:23;8.30;;;3.00;;
12784;SDS011;6456;42.680;23.260;2023-07-20T13:42:49;6.03;;;2.63;;
12784;SDS011;6456;42.680;23.260;2023-07-20T13:45:16;5.18;;;2.80;;
12784;SDS011;6456;42.680;23.260;2023-07-20T13:47:43;5.93;;;2.60;;
12784;SDS011;6456;42.680;23.260;2023-07-20T13:50:10;10.77;;;3.13;;
12784;SDS011;6456;42.680;23.260;2023-07-20T13:52:37;6.28;;;2.70;;
12784;SDS011;6456;42.680;23.260;2023-07-20T13:55:04;6.28;;;2.78;;
12784;SDS011;6456;42.680;23.260;2023-07-20T13:57:32;4.22;;;2.58;;
12784;SDS011;6456;42.680;23.260;2023-07-20T13:59:59;13.10;;;3.03;;
12784;SDS011;6456;42.680;23.260;2023-07-20T14:02:27;7.55;;;2.90;;
12784;SDS011;6456;42.680;23.260;2023-07-20T14:04:54;4.35;;;2.38;;
12784;SDS011;6456;42.680;23.260;2023-07-20T14:07:21;5.07;;;2.20;;
12784;SDS011;6456;42.680;23.260;2023-07-20T14:09:48;7.13;;;2.85;;
12784;SDS011;6456;42.680;23.260;2023-07-20T14:12:15;7.97;;;2.80;;
12784;SDS011;6456;42.680;23.260;2023-07-20T14:14:43;7.22;;;2.65;;
12784;SDS011;6456;42.680;23.260;2023-07-20T14:17:10;8.13;;;2.60;;
12784;SDS011;6456;42.680;23.260;2023-07-20T14:19:37;6.72;;;2.67;;
12784;SDS011;6456;42.680;23.260;2023-07-20T14:22:04;3.92;;;2.38;;
12784;SDS011;6456;42.680;23.260;2023-07-20T14:24:31;5.43;;;2.60;;
12784;SDS011;6456;42.680;23.260;2023-07-20T14:26:58;10.73;;;2.88;;
12784;SDS011;6456;42.680;23.260;2023-07-20T14:29:25;6.63;;;2.85;;
12784;SDS011;6456;42.680;23.260;2023-07-20T14:31:54;5.38;;;2.53;;
12784;SDS011;6456;42.680;23.260;2023-07-20T14:34:21;6.47;;;2.65;;
12784;SDS011;6456;42.680;23.260;2023-07-20T14:36:48;8.82;;;2.60;;
12784;SDS011;6456;42.680;23.260;2023-07-20T14:39:15;6.60;;;2.80;;
12784;SDS011;6456;42.680;23.260;2023-07-20T14:41:41;4.68;;;2.72;;
12784;SDS011;6456;42.680;23.260;2023-07-20T14:44:08;4.88;;;2.85;;
12784;SDS011;6456;42.680;23.260;2023-07-20T14:46:35;6.63;;;2.72;;
12784;SDS011;6456;42.680;23.260;2023-07-20T14:49:04;6.35;;;2.78;;
12784;SDS011;6456;42.680;23.260;2023-07-20T14:51:30;10.65;;;2.63;;
12784;SDS011;6456;42.680;23.260;2023-07-20T14:54:01;7.75;;;2.55;;